Wescosville, Pennsylvania
Current Conditions -  °F | °C
As of 9:55 AM on Monday 22 Dec 2014 (Local Time) from KXLL Reporting Station
Overcast Overcast  
Wind Chill: 34°   Ceiling: 2000
Heat Index: 34°   Visibility: 10mi
Dew Point: 30°   Wind: 3mph
Humidity: 87%   Direction: 50°NE
Pressure: 30.33"   Gusts: NA
Location:  40.5627°N, 75.5697°W
Report Text: KXLL 221455Z AUTO 05003KT 10SM OVC020 01/M01 A3033 RMK AO2
Loading
Personal Weather Stations






























Interactive Weather Map New forecast layout! Learn more

10-Day Weather Forecast

Advertisements
Track Severe Weather on mobile